createdAt,value
2022-11-21T00:03:24.578Z,3.21
2022-11-21T00:08:26.180Z,3.22
2022-11-21T00:13:27.947Z,3.23
2022-11-21T00:18:29.529Z,3.15
2022-11-21T00:23:31.152Z,3.08
2022-11-21T00:28:33.275Z,3.03
2022-11-21T00:33:36.411Z,2.98
2022-11-21T00:38:38.258Z,2.90
2022-11-21T00:43:40.260Z,2.80
2022-11-21T00:48:42.087Z,2.68
2022-11-21T00:53:43.709Z,2.62
2022-11-21T00:58:45.309Z,2.45
2022-11-21T01:03:46.981Z,2.36
2022-11-21T01:08:48.762Z,2.34
2022-11-21T01:13:52.899Z,2.24
2022-11-21T01:18:54.586Z,2.14
2022-11-21T01:23:58.468Z,2.18
2022-11-21T01:29:00.771Z,2.23
2022-11-21T01:34:02.415Z,2.22
2022-11-21T01:39:06.046Z,2.06
2022-11-21T01:44:14.961Z,2.02
2022-11-21T01:49:30.664Z,2.07
2022-11-21T01:54:53.700Z,2.14
2022-11-21T02:00:02.815Z,2.06
2022-11-21T02:05:11.525Z,2.10
2022-11-21T02:10:15.512Z,2.08
2022-11-21T02:15:23.255Z,2.05
2022-11-21T02:20:27.425Z,2.07
2022-11-21T02:25:31.465Z,2.06
2022-11-21T02:30:36.224Z,2.05
2022-11-21T02:35:38.088Z,2.12
2022-11-21T02:40:44.148Z,2.13
2022-11-21T02:45:46.804Z,1.96
2022-11-21T02:50:48.375Z,1.89
2022-11-21T02:55:50.171Z,1.84
2022-11-21T03:00:51.814Z,1.72
2022-11-21T03:05:54.389Z,1.81
2022-11-21T03:10:55.985Z,1.81
2022-11-21T03:15:59.573Z,1.88
2022-11-21T03:21:01.208Z,1.87
2022-11-21T03:26:02.811Z,1.93
2022-11-21T03:31:04.377Z,2.02
2022-11-21T03:36:06.051Z,2.07
2022-11-21T03:41:27.843Z,2.15
2022-11-21T03:46:32.238Z,2.16
2022-11-21T03:51:34.521Z,2.23
2022-11-21T03:56:36.286Z,2.31
2022-11-21T04:01:37.982Z,2.28
2022-11-21T04:06:39.580Z,2.24
2022-11-21T04:11:41.377Z,2.21
2022-11-21T04:16:42.961Z,2.27
2022-11-21T04:21:44.553Z,2.30
2022-11-21T04:26:46.151Z,2.29
2022-11-21T04:31:47.700Z,2.34
2022-11-21T04:36:49.328Z,2.37
2022-11-21T04:41:51.195Z,2.41
2022-11-21T04:46:53.214Z,2.50
2022-11-21T04:51:54.787Z,2.51
2022-11-21T04:56:56.605Z,2.59
2022-11-21T05:01:58.182Z,2.64
2022-11-21T05:06:59.816Z,2.68
2022-11-21T05:12:21.630Z,2.72
2022-11-21T05:17:23.497Z,2.74
2022-11-21T05:22:25.279Z,2.74
2022-11-21T05:27:27.106Z,2.69
2022-11-21T05:32:28.703Z,2.64
2022-11-21T05:37:30.260Z,2.65
2022-11-21T05:42:50.172Z,2.73
2022-11-21T05:47:52.001Z,2.76
2022-11-21T05:52:53.612Z,2.79
2022-11-21T05:57:58.356Z,2.79
2022-11-21T06:03:18.296Z,2.84
2022-11-21T06:08:19.962Z,2.87
2022-11-21T06:13:22.179Z,2.93
2022-11-21T06:18:24.117Z,2.99
2022-11-21T06:23:25.777Z,2.99
2022-11-21T06:28:31.287Z,2.88
2022-11-21T06:33:33.750Z,2.99
2022-11-21T06:38:36.104Z,3.03
2022-11-21T06:43:37.726Z,3.10
2022-11-21T06:48:39.971Z,3.14
2022-11-21T06:53:41.776Z,3.15
2022-11-21T06:58:43.365Z,3.21
2022-11-21T07:03:45.003Z,3.28
2022-11-21T07:08:52.471Z,3.33
2022-11-21T07:14:07.725Z,3.38
2022-11-21T07:19:10.761Z,3.43
2022-11-21T07:24:12.554Z,3.48
2022-11-21T07:29:14.131Z,3.48
2022-11-21T07:34:15.697Z,3.60
2022-11-21T07:39:17.274Z,3.73
2022-11-21T07:44:18.823Z,3.85
2022-11-21T07:49:20.401Z,4.04
2022-11-21T07:54:22.198Z,4.31
2022-11-21T07:59:23.903Z,4.43
2022-11-21T08:04:25.841Z,4.59
2022-11-21T08:09:29.353Z,4.77
2022-11-21T08:14:31.325Z,4.90
2022-11-21T08:19:33.052Z,5.06
2022-11-21T08:24:34.631Z,5.22
2022-11-21T08:29:36.261Z,5.39
2022-11-21T08:34:38.210Z,5.51
2022-11-21T08:39:39.794Z,5.64
2022-11-21T08:44:41.363Z,5.79
2022-11-21T08:49:42.936Z,5.89
2022-11-21T08:54:45.514Z,5.92
2022-11-21T08:59:47.091Z,5.92
2022-11-21T09:04:48.665Z,6.00
2022-11-21T09:09:50.310Z,6.11
2022-11-21T09:15:10.398Z,6.18
2022-11-21T09:20:12.112Z,6.32
2022-11-21T09:25:13.756Z,6.43
2022-11-21T09:30:16.090Z,6.60
2022-11-21T09:35:17.661Z,6.71
2022-11-21T09:40:19.794Z,6.83
2022-11-21T09:45:35.111Z,6.93
2022-11-21T09:50:41.512Z,7.09
2022-11-21T09:55:59.399Z,7.22
2022-11-21T10:01:01.477Z,7.34
2022-11-21T10:06:17.812Z,7.46
2022-11-21T10:12:14.774Z,7.70
2022-11-21T10:17:26.700Z,8.06
2022-11-21T10:22:40.936Z,8.36
2022-11-21T10:28:21.913Z,8.53
2022-11-21T10:33:31.689Z,8.68
2022-11-21T10:38:43.303Z,8.84
2022-11-21T10:44:15.285Z,8.99
2022-11-21T10:49:17.099Z,9.27
2022-11-21T10:54:33.927Z,9.48
2022-11-21T10:59:35.600Z,9.57
2022-11-21T11:04:45.791Z,9.69
2022-11-21T11:09:53.442Z,9.86
2022-11-21T11:14:56.583Z,9.74
2022-11-21T11:20:33.048Z,9.68
2022-11-21T11:25:37.020Z,9.68
2022-11-21T11:30:38.707Z,9.65
2022-11-21T11:35:40.808Z,9.58
2022-11-21T11:40:44.743Z,9.58
2022-11-21T11:46:27.233Z,9.65
2022-11-21T11:51:37.186Z,9.51
2022-11-21T11:56:39.697Z,9.35
2022-11-21T12:01:48.619Z,9.24
2022-11-21T12:08:19.939Z,9.14
2022-11-21T12:12:30.868Z,9.07
2022-11-21T12:17:38.928Z,9.12
2022-11-21T12:22:40.959Z,8.98
2022-11-21T12:27:45.006Z,8.98
2022-11-21T12:32:55.733Z,8.98
2022-11-21T12:38:00.120Z,8.99
2022-11-21T12:43:23.394Z,8.91
2022-11-21T12:49:00.322Z,8.83
2022-11-21T12:54:33.266Z,8.85
2022-11-21T12:59:44.968Z,8.79
2022-11-21T13:04:49.776Z,8.77
2022-11-21T13:09:54.395Z,8.76
2022-11-21T13:15:18.214Z,8.76
2022-11-21T13:20:25.952Z,8.82
2022-11-21T13:25:30.259Z,8.79
2022-11-21T13:30:32.057Z,8.75
2022-11-21T13:35:51.876Z,8.64
2022-11-21T13:41:12.354Z,8.59
2022-11-21T13:46:52.460Z,8.52
2022-11-21T13:51:54.543Z,8.49
2022-11-21T13:57:03.482Z,8.53
2022-11-21T14:02:25.011Z,8.36
2022-11-21T14:07:32.980Z,8.41
2022-11-21T14:12:44.138Z,8.43
2022-11-21T14:17:50.043Z,8.34
2022-11-21T14:23:03.267Z,8.23
2022-11-21T14:28:09.737Z,8.15
2022-11-21T14:33:35.480Z,8.14
2022-11-21T14:39:07.670Z,8.08
2022-11-21T14:44:10.695Z,8.06
2022-11-21T14:49:20.517Z,7.95
2022-11-21T14:54:40.018Z,7.96
2022-11-21T14:59:44.030Z,7.87
2022-11-21T15:04:48.162Z,7.81
2022-11-21T15:10:27.320Z,7.71
2022-11-21T15:15:23.482Z,7.54
2022-11-21T15:20:26.505Z,7.45
2022-11-21T15:25:30.503Z,7.40
2022-11-21T15:30:33.977Z,7.31
2022-11-21T15:35:35.649Z,7.28
2022-11-21T15:40:37.272Z,7.18
2022-11-21T15:45:38.933Z,7.18
2022-11-21T15:50:40.685Z,7.12
2022-11-21T15:55:42.291Z,7.01
2022-11-21T16:00:43.931Z,6.92
2022-11-21T16:05:45.567Z,6.84
2022-11-21T16:10:47.265Z,6.76
2022-11-21T16:15:48.917Z,6.62
2022-11-21T16:20:50.835Z,6.52
2022-11-21T16:25:54.217Z,6.40
2022-11-21T16:30:58.310Z,6.28
2022-11-21T16:36:00.427Z,6.17
2022-11-21T16:41:05.283Z,6.05
2022-11-21T16:46:09.383Z,5.97
2022-11-21T16:51:20.992Z,5.92
2022-11-21T16:56:22.625Z,5.89
2022-11-21T17:01:26.251Z,5.89
2022-11-21T17:06:30.380Z,5.92
2022-11-21T17:11:32.197Z,5.91
2022-11-21T17:16:34.853Z,5.83
2022-11-21T17:21:36.769Z,5.77
2022-11-21T17:26:38.491Z,5.72
2022-11-21T17:31:41.921Z,5.69
2022-11-21T17:36:43.686Z,5.62
2022-11-21T17:41:45.339Z,5.52
2022-11-21T17:46:47.058Z,5.36
2022-11-21T17:51:52.459Z,5.23
2022-11-21T17:56:57.311Z,5.06
2022-11-21T18:01:59.128Z,4.91
2022-11-21T18:07:00.924Z,4.75
2022-11-21T18:12:02.579Z,4.57
2022-11-21T18:17:04.215Z,4.48
2022-11-21T18:22:05.896Z,4.42
2022-11-21T18:27:09.350Z,4.31
2022-11-21T18:32:10.942Z,4.18
2022-11-21T18:37:12.741Z,4.13
2022-11-21T18:42:14.296Z,4.07
2022-11-21T18:47:20.793Z,4.05
2022-11-21T18:52:22.726Z,3.98
2022-11-21T18:57:24.533Z,3.85
2022-11-21T19:02:26.575Z,3.74
2022-11-21T19:07:28.324Z,3.71
2022-11-21T19:12:33.811Z,3.66
2022-11-21T19:17:37.919Z,3.64
2022-11-21T19:22:39.496Z,3.58
2022-11-21T19:27:41.063Z,3.50
2022-11-21T19:32:42.696Z,3.46
2022-11-21T19:37:44.854Z,3.31
2022-11-21T19:42:46.461Z,3.27
2022-11-21T19:47:49.011Z,3.21
2022-11-21T19:52:50.645Z,3.17
2022-11-21T19:57:52.225Z,2.83
2022-11-21T20:02:54.036Z,2.91
2022-11-21T20:08:01.666Z,2.90
2022-11-21T20:13:05.438Z,2.90
2022-11-21T20:18:08.324Z,2.84
2022-11-21T20:23:10.110Z,2.79
2022-11-21T20:28:11.985Z,2.63
2022-11-21T20:33:13.604Z,2.44
2022-11-21T20:38:17.903Z,2.47
2022-11-21T20:43:23.158Z,2.56
2022-11-21T20:48:24.952Z,2.62
2022-11-21T20:53:51.592Z,2.59
2022-11-21T20:58:52.383Z,2.56
2022-11-21T21:03:54.529Z,2.48
2022-11-21T21:08:56.108Z,2.43
2022-11-21T21:13:57.885Z,2.29
2022-11-21T21:18:59.980Z,2.10
2022-11-21T21:24:08.285Z,2.06
2022-11-21T21:29:12.246Z,2.07
2022-11-21T21:34:14.278Z,2.17
2022-11-21T21:39:15.990Z,2.33
2022-11-21T21:44:17.560Z,2.53
2022-11-21T21:49:19.284Z,2.80
2022-11-21T21:54:22.307Z,2.92
2022-11-21T21:59:23.972Z,3.03
2022-11-21T22:04:25.925Z,3.14
2022-11-21T22:09:27.716Z,3.23
2022-11-21T22:14:29.849Z,3.27
2022-11-21T22:19:31.757Z,3.28
2022-11-21T22:24:33.452Z,3.35
2022-11-21T22:29:35.023Z,3.42
2022-11-21T22:34:36.766Z,3.45
2022-11-21T22:39:38.601Z,3.49
2022-11-21T22:44:40.201Z,3.41
2022-11-21T22:49:41.841Z,3.35
2022-11-21T22:54:43.661Z,3.29
2022-11-21T22:59:45.240Z,3.30
2022-11-21T23:04:46.830Z,3.32
2022-11-21T23:09:48.421Z,3.33
2022-11-21T23:14:50.145Z,3.31
2022-11-21T23:19:51.905Z,3.29
2022-11-21T23:24:53.504Z,3.20
2022-11-21T23:29:55.249Z,3.18
2022-11-21T23:34:56.865Z,3.07
2022-11-21T23:39:58.429Z,3.08
2022-11-21T23:45:00.229Z,3.03
2022-11-21T23:50:01.834Z,3.03
2022-11-21T23:55:03.669Z,2.90
